sensor_id;sensor_type;location;lat;lon;timestamp;pressure;altitude;pressure_sealevel;temperature;humidity
48614;BME280;34408;51.426;5.444;2022-07-12T00:00:06;102337.59;;;20.78;56.76
48614;BME280;34408;51.426;5.444;2022-07-12T00:02:34;102331.25;;;20.72;56.88
48614;BME280;34408;51.426;5.444;2022-07-12T00:05:02;102346.31;;;20.75;56.96
48614;BME280;34408;51.426;5.444;2022-07-12T00:07:30;102343.00;;;20.73;56.90
48614;BME280;34408;51.426;5.444;2022-07-12T00:09:58;102348.72;;;20.71;57.00
48614;BME280;34408;51.426;5.444;2022-07-12T00:12:26;102339.97;;;20.69;57.15
48614;BME280;34408;51.426;5.444;2022-07-12T00:14:55;102331.19;;;20.67;56.92
48614;BME280;34408;51.426;5.444;2022-07-12T00:17:23;102321.59;;;20.65;56.88
48614;BME280;34408;51.426;5.444;2022-07-12T00:19:51;102323.50;;;20.64;57.18
48614;BME280;34408;51.426;5.444;2022-07-12T00:22:19;102322.91;;;20.62;57.06
48614;BME280;34408;51.426;5.444;2022-07-12T00:24:46;102321.28;;;20.61;57.18
48614;BME280;34408;51.426;5.444;2022-07-12T00:27:14;102316.06;;;20.60;57.15
48614;BME280;34408;51.426;5.444;2022-07-12T00:29:42;102321.78;;;20.58;57.08
48614;BME280;34408;51.426;5.444;2022-07-12T00:32:11;102326.66;;;20.56;57.03
48614;BME280;34408;51.426;5.444;2022-07-12T00:34:39;102330.47;;;20.55;57.26
48614;BME280;34408;51.426;5.444;2022-07-12T00:37:07;102320.88;;;20.53;57.19
48614;BME280;34408;51.426;5.444;2022-07-12T00:39:34;102331.81;;;20.53;57.17
48614;BME280;34408;51.426;5.444;2022-07-12T00:42:03;102332.06;;;20.51;57.13
48614;BME280;34408;51.426;5.444;2022-07-12T00:44:31;102320.56;;;20.49;57.20
48614;BME280;34408;51.426;5.444;2022-07-12T00:47:01;102317.81;;;20.49;57.04
48614;BME280;34408;51.426;5.444;2022-07-12T00:49:30;102318.09;;;20.48;57.11
48614;BME280;34408;51.426;5.444;2022-07-12T00:51:58;102311.97;;;20.40;57.32
48614;BME280;34408;51.426;5.444;2022-07-12T00:54:26;102313.94;;;20.45;57.18
48614;BME280;34408;51.426;5.444;2022-07-12T00:56:54;102320.50;;;20.44;57.21
48614;BME280;34408;51.426;5.444;2022-07-12T00:59:22;102323.22;;;20.44;57.06
48614;BME280;34408;51.426;5.444;2022-07-12T01:01:50;102319.66;;;20.43;57.27
48614;BME280;34408;51.426;5.444;2022-07-12T01:04:17;102315.53;;;20.41;57.34
48614;BME280;34408;51.426;5.444;2022-07-12T01:06:47;102319.34;;;20.40;57.11
48614;BME280;34408;51.426;5.444;2022-07-12T01:09:15;102315.78;;;20.39;57.27
48614;BME280;34408;51.426;5.444;2022-07-12T01:11:42;102328.59;;;20.39;57.30
48614;BME280;34408;51.426;5.444;2022-07-12T01:14:10;102316.25;;;20.36;57.14
48614;BME280;34408;51.426;5.444;2022-07-12T01:16:40;102323.88;;;20.34;57.20
48614;BME280;34408;51.426;5.444;2022-07-12T01:19:08;102317.59;;;20.34;57.13
48614;BME280;34408;51.426;5.444;2022-07-12T01:21:42;102313.69;;;20.30;57.27
48614;BME280;34408;51.426;5.444;2022-07-12T01:24:15;102315.34;;;20.31;57.16
48614;BME280;34408;51.426;5.444;2022-07-12T01:26:43;102324.63;;;20.30;57.34
48614;BME280;34408;51.426;5.444;2022-07-12T01:29:11;102329.50;;;20.28;57.28
48614;BME280;34408;51.426;5.444;2022-07-12T01:31:40;102325.94;;;20.27;57.50
48614;BME280;34408;51.426;5.444;2022-07-12T01:34:08;102330.84;;;20.25;57.41
48614;BME280;34408;51.426;5.444;2022-07-12T01:36:36;102336.28;;;20.25;57.30
48614;BME280;34408;51.426;5.444;2022-07-12T01:39:05;102341.44;;;20.22;57.17
48614;BME280;34408;51.426;5.444;2022-07-12T01:41:34;102337.53;;;20.18;57.10
48614;BME280;34408;51.426;5.444;2022-07-12T01:44:02;102340.03;;;20.19;57.19
48614;BME280;34408;51.426;5.444;2022-07-12T01:46:30;102341.09;;;20.18;56.96
48614;BME280;34408;51.426;5.444;2022-07-12T01:48:58;102335.88;;;20.17;57.19
48614;BME280;34408;51.426;5.444;2022-07-12T01:51:26;102336.97;;;20.15;57.15
48614;BME280;34408;51.426;5.444;2022-07-12T01:53:53;102335.56;;;20.13;57.13
48614;BME280;34408;51.426;5.444;2022-07-12T01:56:21;102342.09;;;20.12;57.15
48614;BME280;34408;51.426;5.444;2022-07-12T01:58:50;102332.50;;;20.09;57.15
48614;BME280;34408;51.426;5.444;2022-07-12T02:01:18;102330.03;;;20.08;57.11
48614;BME280;34408;51.426;5.444;2022-07-12T02:03:47;102325.88;;;20.05;56.97
48614;BME280;34408;51.426;5.444;2022-07-12T02:06:15;102328.63;;;20.05;57.20
48614;BME280;34408;51.426;5.444;2022-07-12T02:08:42;102317.03;;;19.98;57.25
48614;BME280;34408;51.426;5.444;2022-07-12T02:11:10;102322.00;;;20.01;57.30
48614;BME280;34408;51.426;5.444;2022-07-12T02:13:38;102323.31;;;19.99;57.23
48614;BME280;34408;51.426;5.444;2022-07-12T02:16:07;102329.84;;;19.98;57.35
48614;BME280;34408;51.426;5.444;2022-07-12T02:18:35;102331.75;;;19.97;57.20
48614;BME280;34408;51.426;5.444;2022-07-12T02:21:03;102328.47;;;19.95;57.27
48614;BME280;34408;51.426;5.444;2022-07-12T02:23:31;102325.16;;;19.93;57.28
48614;BME280;34408;51.426;5.444;2022-07-12T02:25:59;102318.28;;;19.91;57.35
48614;BME280;34408;51.426;5.444;2022-07-12T02:28:27;102317.38;;;19.85;57.19
48614;BME280;34408;51.426;5.444;2022-07-12T02:30:55;102325.91;;;19.89;57.25
48614;BME280;34408;51.426;5.444;2022-07-12T02:33:24;102322.34;;;19.88;57.19
48614;BME280;34408;51.426;5.444;2022-07-12T02:35:52;102319.84;;;19.87;57.26
48614;BME280;34408;51.426;5.444;2022-07-12T02:38:20;102325.56;;;19.85;57.43
48614;BME280;34408;51.426;5.444;2022-07-12T02:40:48;102322.25;;;19.83;57.24
48614;BME280;34408;51.426;5.444;2022-07-12T02:43:22;102317.88;;;19.82;57.37
48614;BME280;34408;51.426;5.444;2022-07-12T02:45:50;102323.56;;;19.80;57.11
48614;BME280;34408;51.426;5.444;2022-07-12T02:48:19;102329.28;;;19.79;57.35
48614;BME280;34408;51.426;5.444;2022-07-12T02:50:48;102328.44;;;19.78;57.39
48614;BME280;34408;51.426;5.444;2022-07-12T02:53:16;102325.97;;;19.77;57.33
48614;BME280;34408;51.426;5.444;2022-07-12T02:55:44;102328.38;;;19.73;57.28
48614;BME280;34408;51.426;5.444;2022-07-12T02:58:12;102328.13;;;19.75;57.30
48614;BME280;34408;51.426;5.444;2022-07-12T03:00:40;102325.06;;;19.71;57.13
48614;BME280;34408;51.426;5.444;2022-07-12T03:03:08;102329.19;;;19.74;57.21
48614;BME280;34408;51.426;5.444;2022-07-12T03:05:36;102323.16;;;19.72;57.23
48614;BME280;34408;51.426;5.444;2022-07-12T03:08:07;102325.06;;;19.71;57.26
48614;BME280;34408;51.426;5.444;2022-07-12T03:10:35;102324.47;;;19.69;57.36
48614;BME280;34408;51.426;5.444;2022-07-12T03:13:03;102330.19;;;19.68;57.16
48614;BME280;34408;51.426;5.444;2022-07-12T03:15:32;102325.78;;;19.67;57.35
48614;BME280;34408;51.426;5.444;2022-07-12T03:18:01;102315.97;;;19.66;57.30
48614;BME280;34408;51.426;5.444;2022-07-12T03:20:29;102325.22;;;19.65;57.42
48614;BME280;34408;51.426;5.444;2022-07-12T03:22:57;102321.09;;;19.62;57.17
48614;BME280;34408;51.426;5.444;2022-07-12T03:25:26;102316.69;;;19.61;57.26
48614;BME280;34408;51.426;5.444;2022-07-12T03:27:54;102316.69;;;19.61;57.49
48614;BME280;34408;51.426;5.444;2022-07-12T03:30:22;102313.38;;;19.59;57.50
48614;BME280;34408;51.426;5.444;2022-07-12T03:32:50;102318.84;;;19.59;57.30
48614;BME280;34408;51.426;5.444;2022-07-12T03:35:18;102320.16;;;19.57;57.39
48614;BME280;34408;51.426;5.444;2022-07-12T03:37:48;102314.72;;;19.57;57.56
48614;BME280;34408;51.426;5.444;2022-07-12T03:40:18;102309.75;;;19.54;57.42
48614;BME280;34408;51.426;5.444;2022-07-12T03:42:48;102313.56;;;19.53;57.36
48614;BME280;34408;51.426;5.444;2022-07-12T03:45:17;102311.91;;;19.52;57.53
48614;BME280;34408;51.426;5.444;2022-07-12T03:47:45;102312.16;;;19.38;57.58
48614;BME280;34408;51.426;5.444;2022-07-12T03:50:15;102330.63;;;19.48;57.59
48614;BME280;34408;51.426;5.444;2022-07-12T03:52:43;102328.97;;;19.47;57.74
48614;BME280;34408;51.426;5.444;2022-07-12T03:55:11;102324.81;;;19.44;57.46
48614;BME280;34408;51.426;5.444;2022-07-12T03:57:40;102322.09;;;19.44;57.61
48614;BME280;34408;51.426;5.444;2022-07-12T04:00:10;102327.78;;;19.43;57.50
48614;BME280;34408;51.426;5.444;2022-07-12T04:02:40;102333.50;;;19.41;57.64
48614;BME280;34408;51.426;5.444;2022-07-12T04:05:08;102336.47;;;19.40;57.61
48614;BME280;34408;51.426;5.444;2022-07-12T04:07:37;102334.47;;;19.35;57.76
48614;BME280;34408;51.426;5.444;2022-07-12T04:10:06;102336.94;;;19.37;57.56
48614;BME280;34408;51.426;5.444;2022-07-12T04:12:34;102330.66;;;19.36;57.71
48614;BME280;34408;51.426;5.444;2022-07-12T04:15:02;102325.47;;;19.35;57.76
48614;BME280;34408;51.426;5.444;2022-07-12T04:17:32;102320.25;;;19.33;57.69
48614;BME280;34408;51.426;5.444;2022-07-12T04:20:00;102328.44;;;19.33;57.61
48614;BME280;34408;51.426;5.444;2022-07-12T04:22:28;102322.41;;;19.31;57.76
48614;BME280;34408;51.426;5.444;2022-07-12T04:24:56;102323.22;;;19.32;57.54
48614;BME280;34408;51.426;5.444;2022-07-12T04:27:24;102328.09;;;19.30;57.67
48614;BME280;34408;51.426;5.444;2022-07-12T04:29:52;102310.97;;;19.17;57.82
48614;BME280;34408;51.426;5.444;2022-07-12T04:32:27;102322.78;;;19.23;57.98
48614;BME280;34408;51.426;5.444;2022-07-12T04:34:56;102333.78;;;19.28;58.07
48614;BME280;34408;51.426;5.444;2022-07-12T04:37:24;102334.84;;;19.27;57.81
48614;BME280;34408;51.426;5.444;2022-07-12T04:39:52;102335.69;;;19.28;57.82
48614;BME280;34408;51.426;5.444;2022-07-12T04:42:20;102334.84;;;19.27;58.12
48614;BME280;34408;51.426;5.444;2022-07-12T04:44:48;102335.94;;;19.26;57.98
48614;BME280;34408;51.426;5.444;2022-07-12T04:47:15;102332.38;;;19.26;58.09
48614;BME280;34408;51.426;5.444;2022-07-12T04:49:43;102330.47;;;19.26;58.01
48614;BME280;34408;51.426;5.444;2022-07-12T04:52:12;102335.34;;;19.24;57.96
48614;BME280;34408;51.426;5.444;2022-07-12T04:54:40;102336.41;;;19.23;58.08
48614;BME280;34408;51.426;5.444;2022-07-12T04:57:07;102330.97;;;19.23;57.96
48614;BME280;34408;51.426;5.444;2022-07-12T04:59:35;102336.41;;;19.23;58.12
48614;BME280;34408;51.426;5.444;2022-07-12T05:02:04;102338.06;;;19.24;58.01
48614;BME280;34408;51.426;5.444;2022-07-12T05:04:32;102345.19;;;19.25;58.20
48614;BME280;34408;51.426;5.444;2022-07-12T05:07:00;102339.72;;;19.25;58.13
48614;BME280;34408;51.426;5.444;2022-07-12T05:09:29;102345.19;;;19.25;58.22
48614;BME280;34408;51.426;5.444;2022-07-12T05:11:57;102343.03;;;19.27;58.06
48614;BME280;34408;51.426;5.444;2022-07-12T05:14:25;102343.03;;;19.27;58.11
48614;BME280;34408;51.426;5.444;2022-07-12T05:16:53;102353.47;;;19.30;58.03
48614;BME280;34408;51.426;5.444;2022-07-12T05:19:21;102353.22;;;19.32;57.86
48614;BME280;34408;51.426;5.444;2022-07-12T05:21:49;102356.53;;;19.34;57.79
48614;BME280;34408;51.426;5.444;2022-07-12T05:24:17;102353.56;;;19.35;57.70
48614;BME280;34408;51.426;5.444;2022-07-12T05:26:46;102356.88;;;19.37;57.84
48614;BME280;34408;51.426;5.444;2022-07-12T05:29:14;102365.38;;;19.41;57.84
48614;BME280;34408;51.426;5.444;2022-07-12T05:31:41;102367.88;;;19.42;57.73
48614;BME280;34408;51.426;5.444;2022-07-12T05:34:09;102364.66;;;19.45;57.78
48614;BME280;34408;51.426;5.444;2022-07-12T05:36:37;102373.41;;;19.47;57.96
48614;BME280;34408;51.426;5.444;2022-07-12T05:39:05;102376.72;;;19.49;58.05
48614;BME280;34408;51.426;5.444;2022-07-12T05:41:33;102380.06;;;19.52;58.09
48614;BME280;34408;51.426;5.444;2022-07-12T05:44:02;102387.75;;;19.55;58.06
48614;BME280;34408;51.426;5.444;2022-07-12T05:46:30;102388.34;;;19.57;58.17
48614;BME280;34408;51.426;5.444;2022-07-12T05:48:58;102394.38;;;19.59;58.30
48614;BME280;34408;51.426;5.444;2022-07-12T05:51:25;102396.03;;;19.60;58.16
48614;BME280;34408;51.426;5.444;2022-07-12T05:54:11;102404.22;;;19.60;58.30
48614;BME280;34408;51.426;5.444;2022-07-12T05:56:38;102400.19;;;19.62;58.32
48614;BME280;34408;51.426;5.444;2022-07-12T05:59:07;102408.94;;;19.64;58.25
48614;BME280;34408;51.426;5.444;2022-07-12T06:01:36;102411.69;;;19.64;58.35
48614;BME280;34408;51.426;5.444;2022-07-12T06:04:04;102415.81;;;19.67;58.49
48614;BME280;34408;51.426;5.444;2022-07-12T06:06:32;102411.19;;;19.67;58.41
48614;BME280;34408;51.426;5.444;2022-07-12T06:09:00;102404.66;;;19.68;58.71
48614;BME280;34408;51.426;5.444;2022-07-12T06:11:28;102420.78;;;19.70;58.33
48614;BME280;34408;51.426;5.444;2022-07-12T06:13:56;102419.47;;;19.72;58.67
48614;BME280;34408;51.426;5.444;2022-07-12T06:16:25;102416.50;;;19.74;58.92
48614;BME280;34408;51.426;5.444;2022-07-12T06:18:53;102420.28;;;19.73;59.00
48614;BME280;34408;51.426;5.444;2022-07-12T06:21:21;102413.75;;;19.74;58.78
48614;BME280;34408;51.426;5.444;2022-07-12T06:23:48;102409.63;;;19.71;58.73
48614;BME280;34408;51.426;5.444;2022-07-12T06:26:16;102421.38;;;19.72;58.77
48614;BME280;34408;51.426;5.444;2022-07-12T06:28:44;102423.50;;;19.70;58.70
48614;BME280;34408;51.426;5.444;2022-07-12T06:31:11;102419.38;;;19.67;58.89
48614;BME280;34408;51.426;5.444;2022-07-12T06:33:41;102420.19;;;19.68;58.61
48614;BME280;34408;51.426;5.444;2022-07-12T06:36:08;102422.91;;;19.68;58.83
48614;BME280;34408;51.426;5.444;2022-07-12T06:38:36;102425.66;;;19.68;58.76
48614;BME280;34408;51.426;5.444;2022-07-12T06:41:12;102416.06;;;19.65;58.90
48614;BME280;34408;51.426;5.444;2022-07-12T06:43:40;102423.75;;;19.68;58.73
48614;BME280;34408;51.426;5.444;2022-07-12T06:46:08;102421.28;;;19.67;58.65
48614;BME280;34408;51.426;5.444;2022-07-12T06:48:35;102417.97;;;19.65;59.26
48614;BME280;34408;51.426;5.444;2022-07-12T06:51:04;102426.25;;;19.70;58.95
48614;BME280;34408;51.426;5.444;2022-07-12T06:53:32;102416.88;;;19.66;58.98
48614;BME280;34408;51.426;5.444;2022-07-12T06:56:00;102431.44;;;19.71;58.93
48614;BME280;34408;51.426;5.444;2022-07-12T06:58:28;102431.44;;;19.71;58.82
48614;BME280;34408;51.426;5.444;2022-07-12T07:00:55;102430.38;;;19.72;58.93
48614;BME280;34408;51.426;5.444;2022-07-12T07:03:24;102433.94;;;19.73;58.97
48614;BME280;34408;51.426;5.444;2022-07-12T07:05:51;102425.75;;;19.73;58.80
48614;BME280;34408;51.426;5.444;2022-07-12T07:08:21;102434.50;;;19.75;58.91
48614;BME280;34408;51.426;5.444;2022-07-12T07:10:48;102431.53;;;19.76;59.45
48614;BME280;34408;51.426;5.444;2022-07-12T07:13:16;102430.72;;;19.76;59.20
48614;BME280;34408;51.426;5.444;2022-07-12T07:15:44;102437.59;;;19.78;59.36
48614;BME280;34408;51.426;5.444;2022-07-12T07:18:11;102431.06;;;19.79;59.32
48614;BME280;34408;51.426;5.444;2022-07-12T07:20:39;102425.59;;;19.79;59.35
48614;BME280;34408;51.426;5.444;2022-07-12T07:23:07;102428.06;;;19.81;59.31
48614;BME280;34408;51.426;5.444;2022-07-12T07:25:38;102422.88;;;19.79;59.47
48614;BME280;34408;51.426;5.444;2022-07-12T07:28:05;102420.72;;;19.81;59.81
48614;BME280;34408;51.426;5.444;2022-07-12T07:30:34;102425.09;;;19.82;59.96
48614;BME280;34408;51.426;5.444;2022-07-12T07:33:19;102420.72;;;19.81;59.91
48614;BME280;34408;51.426;5.444;2022-07-12T07:35:47;102427.59;;;19.84;60.05
48614;BME280;34408;51.426;5.444;2022-07-12T07:38:16;102427.34;;;19.86;59.97
48614;BME280;34408;51.426;5.444;2022-07-12T07:40:46;102423.28;;;19.88;59.82
48614;BME280;34408;51.426;5.444;2022-07-12T07:43:14;102427.69;;;19.89;60.01
48614;BME280;34408;51.426;5.444;2022-07-12T07:45:41;102426.59;;;19.90;59.95
48614;BME280;34408;51.426;5.444;2022-07-12T07:48:09;102419.25;;;19.91;60.00
48614;BME280;34408;51.426;5.444;2022-07-12T07:50:52;102414.53;;;19.86;60.05
48614;BME280;34408;51.426;5.444;2022-07-12T07:53:32;102420.66;;;19.93;59.87
48614;BME280;34408;51.426;5.444;2022-07-12T07:56:01;102418.25;;;19.97;60.31
48614;BME280;34408;51.426;5.444;2022-07-12T07:58:29;102412.22;;;19.95;61.04
48614;BME280;34408;51.426;5.444;2022-07-12T08:00:56;102410.34;;;20.12;61.01
48614;BME280;34408;51.426;5.444;2022-07-12T08:03:24;102417.94;;;20.10;60.21
48614;BME280;34408;51.426;5.444;2022-07-12T08:05:52;102416.53;;;20.07;60.37
48614;BME280;34408;51.426;5.444;2022-07-12T08:08:23;102413.81;;;20.07;60.21
48614;BME280;34408;51.426;5.444;2022-07-12T08:11:12;102413.81;;;20.07;60.14
48614;BME280;34408;51.426;5.444;2022-07-12T08:13:40;102410.25;;;20.07;60.01
48614;BME280;34408;51.426;5.444;2022-07-12T08:16:08;102417.38;;;20.08;60.03
48614;BME280;34408;51.426;5.444;2022-07-12T08:18:36;102415.22;;;20.10;60.23
48614;BME280;34408;51.426;5.444;2022-07-12T08:21:04;102415.22;;;20.10;60.20
48614;BME280;34408;51.426;5.444;2022-07-12T08:23:32;102416.03;;;20.10;60.20
48614;BME280;34408;51.426;5.444;2022-07-12T08:26:00;102409.25;;;20.13;60.08
48614;BME280;34408;51.426;5.444;2022-07-12T08:28:29;102409.25;;;20.13;60.39
48614;BME280;34408;51.426;5.444;2022-07-12T08:30:57;102411.50;;;20.16;60.99
48614;BME280;34408;51.426;5.444;2022-07-12T08:33:25;102418.94;;;20.21;60.63
48614;BME280;34408;51.426;5.444;2022-07-12T08:35:53;102422.50;;;20.21;60.23
48614;BME280;34408;51.426;5.444;2022-07-12T08:38:20;102418.94;;;20.21;60.19
48614;BME280;34408;51.426;5.444;2022-07-12T08:40:48;102422.25;;;20.23;60.21
48614;BME280;34408;51.426;5.444;2022-07-12T08:43:16;102424.75;;;20.24;60.38
48614;BME280;34408;51.426;5.444;2022-07-12T08:45:45;102425.31;;;20.26;60.49
48614;BME280;34408;51.426;5.444;2022-07-12T08:48:13;102426.16;;;20.27;60.09
48614;BME280;34408;51.426;5.444;2022-07-12T08:50:41;102431.34;;;20.28;60.17
48614;BME280;34408;51.426;5.444;2022-07-12T08:53:11;102434.41;;;20.32;60.77
48614;BME280;34408;51.426;5.444;2022-07-12T08:55:39;102428.72;;;20.33;60.29
48614;BME280;34408;51.426;5.444;2022-07-12T08:58:15;102425.41;;;20.31;60.96
48614;BME280;34408;51.426;5.444;2022-07-12T09:00:44;102433.69;;;20.36;61.02
48614;BME280;34408;51.426;5.444;2022-07-12T09:03:16;102434.28;;;20.38;60.71
48614;BME280;34408;51.426;5.444;2022-07-12T09:05:48;102436.78;;;20.40;60.79
48614;BME280;34408;51.426;5.444;2022-07-12T09:08:18;102432.13;;;20.40;60.87
48614;BME280;34408;51.426;5.444;2022-07-12T09:10:54;102439.81;;;20.43;60.56
48614;BME280;34408;51.426;5.444;2022-07-12T09:13:48;102442.31;;;20.45;60.90
48614;BME280;34408;51.426;5.444;2022-07-12T09:16:19;102442.38;;;20.50;60.94
48614;BME280;34408;51.426;5.444;2022-07-12T09:18:48;102438.00;;;20.49;61.06
48614;BME280;34408;51.426;5.444;2022-07-12T09:21:23;102431.22;;;20.52;61.03
48614;BME280;34408;51.426;5.444;2022-07-12T09:23:53;102442.22;;;20.57;60.88
48614;BME280;34408;51.426;5.444;2022-07-12T09:26:22;102441.97;;;20.58;60.98
48614;BME280;34408;51.426;5.444;2022-07-12T09:28:50;102439.31;;;20.63;60.93
48614;BME280;34408;51.426;5.444;2022-07-12T09:31:20;102430.03;;;20.64;60.89
48614;BME280;34408;51.426;5.444;2022-07-12T09:34:01;102427.63;;;20.68;61.00
48614;BME280;34408;51.426;5.444;2022-07-12T09:36:56;102433.44;;;20.71;60.96
48614;BME280;34408;51.426;5.444;2022-07-12T09:39:25;102428.28;;;20.75;60.93
48614;BME280;34408;51.426;5.444;2022-07-12T09:41:54;102426.13;;;20.77;61.04
48614;BME280;34408;51.426;5.444;2022-07-12T09:44:23;102424.25;;;20.83;61.39
48614;BME280;34408;51.426;5.444;2022-07-12T09:46:53;102418.03;;;20.87;61.12
48614;BME280;34408;51.426;5.444;2022-07-12T09:49:22;102412.97;;;20.96;61.82
48614;BME280;34408;51.426;5.444;2022-07-12T09:51:54;102412.47;;;20.99;61.40
48614;BME280;34408;51.426;5.444;2022-07-12T09:54:25;102415.50;;;21.02;61.21
48614;BME280;34408;51.426;5.444;2022-07-12T09:56:58;102420.59;;;21.16;61.42
48614;BME280;34408;51.426;5.444;2022-07-12T09:59:29;102421.44;;;21.16;61.20
48614;BME280;34408;51.426;5.444;2022-07-12T10:02:00;102421.19;;;21.18;61.21
48614;BME280;34408;51.426;5.444;2022-07-12T10:04:31;102419.28;;;21.18;60.99
48614;BME280;34408;51.426;5.444;2022-07-12T10:07:00;102419.63;;;21.22;61.20
48614;BME280;34408;51.426;5.444;2022-07-12T10:09:29;102417.19;;;21.25;61.43
48614;BME280;34408;51.426;5.444;2022-07-12T10:11:57;102412.03;;;21.29;61.59
48614;BME280;34408;51.426;5.444;2022-07-12T10:14:28;102402.50;;;21.31;61.42
48614;BME280;34408;51.426;5.444;2022-07-12T10:16:58;102404.72;;;21.34;61.19
48614;BME280;34408;51.426;5.444;2022-07-12T10:19:27;102394.31;;;21.31;60.86
48614;BME280;34408;51.426;5.444;2022-07-12T10:21:58;102405.94;;;21.43;60.74
48614;BME280;34408;51.426;5.444;2022-07-12T10:24:44;102399.69;;;21.48;60.97
48614;BME280;34408;51.426;5.444;2022-07-12T10:27:37;102401.38;;;21.54;61.10
48614;BME280;34408;51.426;5.444;2022-07-12T10:30:20;102398.97;;;21.58;60.63
48614;BME280;34408;51.426;5.444;2022-07-12T10:32:51;102400.94;;;21.62;60.16
48614;BME280;34408;51.426;5.444;2022-07-12T10:35:21;102402.31;;;21.65;59.97
48614;BME280;34408;51.426;5.444;2022-07-12T10:38:13;102400.47;;;21.70;60.64
48614;BME280;34408;51.426;5.444;2022-07-12T10:40:42;102384.34;;;21.74;61.07
48614;BME280;34408;51.426;5.444;2022-07-12T10:43:16;102395.41;;;21.84;61.37
48614;BME280;34408;51.426;5.444;2022-07-12T10:45:45;102388.06;;;21.90;60.76
48614;BME280;34408;51.426;5.444;2022-07-12T10:48:24;102388.94;;;21.95;60.89
48614;BME280;34408;51.426;5.444;2022-07-12T10:50:56;102390.63;;;22.01;60.45
48614;BME280;34408;51.426;5.444;2022-07-12T10:53:30;102384.91;;;22.03;59.98
48614;BME280;34408;51.426;5.444;2022-07-12T10:56:11;102392.34;;;22.07;59.80
48614;BME280;34408;51.426;5.444;2022-07-12T10:58:43;102385.22;;;22.06;59.71
48614;BME280;34408;51.426;5.444;2022-07-12T11:01:12;102395.97;;;22.13;59.94
48614;BME280;34408;51.426;5.444;2022-07-12T11:03:44;102382.56;;;22.17;59.46
48614;BME280;34408;51.426;5.444;2022-07-12T11:06:14;102388.34;;;22.20;59.13
48614;BME280;34408;51.426;5.444;2022-07-12T11:09:03;102388.13;;;22.27;59.32
48614;BME280;34408;51.426;5.444;2022-07-12T11:11:33;102388.44;;;22.35;59.41
48614;BME280;34408;51.426;5.444;2022-07-12T11:14:01;102384.69;;;22.47;59.97
48614;BME280;34408;51.426;5.444;2022-07-12T11:16:30;102392.13;;;22.56;60.48
48614;BME280;34408;51.426;5.444;2022-07-12T11:18:59;102387.78;;;22.65;60.19
48614;BME280;34408;51.426;5.444;2022-07-12T11:21:33;102392.22;;;22.71;59.40
48614;BME280;34408;51.426;5.444;2022-07-12T11:24:01;102384.28;;;22.75;59.03
48614;BME280;34408;51.426;5.444;2022-07-12T11:26:32;102377.50;;;22.83;59.85
48614;BME280;34408;51.426;5.444;2022-07-12T11:29:00;102371.22;;;22.87;59.25
48614;BME280;34408;51.426;5.444;2022-07-12T11:31:27;102372.59;;;22.90;58.31
48614;BME280;34408;51.426;5.444;2022-07-12T11:33:55;102374.50;;;22.89;57.00
48614;BME280;34408;51.426;5.444;2022-07-12T11:36:25;102369.03;;;22.89;56.29
48614;BME280;34408;51.426;5.444;2022-07-12T11:38:53;102375.63;;;22.93;57.33
48614;BME280;34408;51.426;5.444;2022-07-12T11:41:21;102373.47;;;23.00;58.39
48614;BME280;34408;51.426;5.444;2022-07-12T11:43:50;102360.28;;;22.97;57.95
48614;BME280;34408;51.426;5.444;2022-07-12T11:46:17;102365.81;;;23.08;57.06
48614;BME280;34408;51.426;5.444;2022-07-12T11:48:45;102361.16;;;23.13;56.88
48614;BME280;34408;51.426;5.444;2022-07-12T11:51:13;102363.94;;;23.18;57.28
48614;BME280;34408;51.426;5.444;2022-07-12T11:53:42;102368.63;;;23.28;57.99
48614;BME280;34408;51.426;5.444;2022-07-12T11:56:10;102367.28;;;23.35;58.17
48614;BME280;34408;51.426;5.444;2022-07-12T11:58:38;102365.09;;;23.37;57.34
48614;BME280;34408;51.426;5.444;2022-07-12T12:01:10;102368.94;;;23.42;56.19
48614;BME280;34408;51.426;5.444;2022-07-12T12:03:43;102360.44;;;23.48;55.91
48614;BME280;34408;51.426;5.444;2022-07-12T12:06:12;102363.19;;;23.53;55.33
48614;BME280;34408;51.426;5.444;2022-07-12T12:08:40;102363.78;;;23.55;55.07
48614;BME280;34408;51.426;5.444;2022-07-12T12:11:09;102366.53;;;23.55;54.09
48614;BME280;34408;51.426;5.444;2022-07-12T12:13:37;102357.75;;;23.58;55.03
48614;BME280;34408;51.426;5.444;2022-07-12T12:16:05;102352.81;;;23.60;54.63
48614;BME280;34408;51.426;5.444;2022-07-12T12:18:35;102353.06;;;23.59;53.23
48614;BME280;34408;51.426;5.444;2022-07-12T12:21:04;102339.63;;;23.57;52.86
48614;BME280;34408;51.426;5.444;2022-07-12T12:23:33;102352.25;;;23.63;54.10
48614;BME280;34408;51.426;5.444;2022-07-12T12:26:14;102337.72;;;23.58;54.11
48614;BME280;34408;51.426;5.444;2022-07-12T12:28:44;102353.09;;;23.74;54.46
48614;BME280;34408;51.426;5.444;2022-07-12T12:31:14;102339.66;;;23.78;53.64
48614;BME280;34408;51.426;5.444;2022-07-12T12:33:43;102347.06;;;23.82;52.79
48614;BME280;34408;51.426;5.444;2022-07-12T12:36:12;102339.66;;;23.88;52.76
48614;BME280;34408;51.426;5.444;2022-07-12T12:38:40;102341.28;;;23.89;53.71
48614;BME280;34408;51.426;5.444;2022-07-12T12:41:10;102349.53;;;23.99;53.75
48614;BME280;34408;51.426;5.444;2022-07-12T12:43:40;102346.22;;;24.02;51.92
48614;BME280;34408;51.426;5.444;2022-07-12T12:46:08;102330.03;;;24.00;51.04
48614;BME280;34408;51.426;5.444;2022-07-12T12:48:36;102335.22;;;24.12;53.63
48614;BME280;34408;51.426;5.444;2022-07-12T12:51:06;102338.53;;;24.14;53.25
48614;BME280;34408;51.426;5.444;2022-07-12T12:53:34;102333.03;;;24.19;54.24
48614;BME280;34408;51.426;5.444;2022-07-12T12:56:06;102328.91;;;24.22;53.58
48614;BME280;34408;51.426;5.444;2022-07-12T12:58:36;102333.84;;;24.25;52.92
48614;BME280;34408;51.426;5.444;2022-07-12T13:01:06;102333.28;;;24.33;54.64